Time;durP1;ratioP1;P1;durP2;ratioP2;P2;SDS_P1;SDS_P2;PMS_P1;PMS_P2;Temp;Humidity;BMP_temperature;BMP_pressure;BME280_temperature;BME280_humidity;BME280_pressure;Samples;Min_cycle;Max_cycle;Signal;HPM_P1;HPM_P2
2023/12/19 00:00:28;;;;;;;;;28.75;25.75;;;;;9.68;100.00;102478.91;2088408;28;45016;-56
2023/12/19 00:01:28;;;;;;;;;23.00;22.80;;;;;9.68;100.00;102470.94;2088227;28;44901;-56
2023/12/19 00:02:29;;;;;;;;;32.00;29.00;;;;;9.67;100.00;102477.13;2088181;28;45105;-58
2023/12/19 00:03:29;;;;;;;;;29.75;25.75;;;;;9.65;100.00;102476.19;2087929;28;44960;-57
2023/12/19 00:04:33;;;;;;;;;26.75;26.25;;;;;9.65;100.00;102479.75;2087266;28;45204;-58
2023/12/19 00:05:33;;;;;;;;;31.40;28.80;;;;;9.62;100.00;102474.41;2086225;28;44945;-58
2023/12/19 00:06:34;;;;;;;;;28.75;26.25;;;;;9.63;100.00;102472.66;2088974;28;45068;-56
2023/12/19 00:07:34;;;;;;;;;30.25;26.25;;;;;9.65;100.00;102470.91;2088442;28;44899;-58
2023/12/19 00:08:35;;;;;;;;;26.00;26.00;;;;;9.65;100.00;102461.19;2088433;28;44881;-59
2023/12/19 00:09:36;;;;;;;;;28.60;28.20;;;;;9.66;100.00;102455.03;2088280;28;44872;-58
2023/12/19 00:10:36;;;;;;;;;30.25;26.75;;;;;9.66;100.00;102455.03;2088461;28;45119;-57
2023/12/19 00:11:37;;;;;;;;;32.50;31.75;;;;;9.67;100.00;102448.88;2088019;28;45067;-58
2023/12/19 00:12:37;;;;;;;;;33.25;28.25;;;;;9.68;100.00;102444.44;2094534;28;44976;-58
2023/12/19 00:13:37;;;;;;;;;32.00;31.50;;;;;9.67;100.00;102440.91;2093971;28;44953;-57
2023/12/19 00:14:38;;;;;;;;;29.50;26.25;;;;;9.68;100.00;102439.16;2086801;28;45055;-56
2023/12/19 00:15:39;;;;;;;;;27.00;26.00;;;;;9.69;100.00;102435.63;2087843;28;45389;-56
2023/12/19 00:16:39;;;;;;;;;34.40;30.00;;;;;9.68;100.00;102440.03;2088362;28;44848;-55
2023/12/19 00:17:40;;;;;;;;;28.00;26.50;;;;;9.67;100.00;102437.38;2087771;28;45019;-56
2023/12/19 00:18:40;;;;;;;;;31.25;28.00;;;;;9.66;100.00;102433.84;2088291;28;44806;-56
2023/12/19 00:19:41;;;;;;;;;27.25;27.25;;;;;9.66;100.00;102438.25;2088732;28;44833;-56
2023/12/19 00:20:41;;;;;;;;;32.75;26.00;;;;;9.67;100.00;102426.75;2088041;28;45311;-57
2023/12/19 00:21:41;;;;;;;;;32.25;27.50;;;;;9.68;100.00;102425.88;2088246;28;44865;-57
2023/12/19 00:22:42;;;;;;;;;33.25;30.50;;;;;9.68;100.00;102431.19;2088258;28;44845;-57
2023/12/19 00:23:42;;;;;;;;;31.00;27.00;;;;;9.69;100.00;102427.66;2088168;28;44897;-58
2023/12/19 00:24:42;;;;;;;;;31.75;29.25;;;;;9.70;100.00;102418.84;2088352;28;44901;-58
2023/12/19 00:25:43;;;;;;;;;38.25;33.00;;;;;9.70;100.00;102414.41;2087378;28;44823;-57
2023/12/19 00:26:43;;;;;;;;;29.75;29.25;;;;;9.70;100.00;102417.06;2088109;28;45055;-55
2023/12/19 00:27:44;;;;;;;;;34.00;30.25;;;;;9.76;100.00;102417.97;2088064;28;44882;-59
2023/12/19 00:28:44;;;;;;;;;33.00;29.00;;;;;9.74;100.00;102418.88;2088347;28;45006;-57
2023/12/19 00:29:44;;;;;;;;;34.50;32.75;;;;;9.77;100.00;102412.69;2088147;28;44891;-56
2023/12/19 00:30:45;;;;;;;;;31.00;30.25;;;;;9.78;100.00;102413.56;2087870;28;44873;-56
2023/12/19 00:31:45;;;;;;;;;32.75;31.00;;;;;9.72;100.00;102410.00;2086303;28;44897;-58
2023/12/19 00:32:45;;;;;;;;;31.75;30.25;;;;;9.73;100.00;102405.59;2085911;28;44839;-57
2023/12/19 00:33:46;;;;;;;;;30.75;27.25;;;;;9.68;100.00;102402.91;2086481;28;44981;-58
2023/12/19 00:34:46;;;;;;;;;35.00;32.25;;;;;9.69;100.00;102409.09;2084841;28;44870;-59
2023/12/19 00:35:47;;;;;;;;;38.50;31.25;;;;;9.67;100.00;102405.56;2087116;28;46694;-58
2023/12/19 00:36:47;;;;;;;;;30.00;25.50;;;;;9.66;100.00;102398.47;2084201;28;45383;-57
2023/12/19 00:37:47;;;;;;;;;33.00;27.00;;;;;9.66;100.00;102406.44;2088283;28;45047;-58
2023/12/19 00:38:49;;;;;;;;;28.25;26.25;;;;;9.58;100.00;102402.81;2087850;28;44898;-59
2023/12/19 00:39:49;;;;;;;;;28.60;28.60;;;;;9.63;100.00;102398.44;2084870;28;45177;-57
2023/12/19 00:40:49;;;;;;;;;31.00;28.50;;;;;9.64;100.00;102397.56;2087959;28;44861;-57
2023/12/19 00:41:50;;;;;;;;;29.00;26.00;;;;;9.64;100.00;102386.94;2088185;28;44969;-55
2023/12/19 00:42:50;;;;;;;;;39.00;34.00;;;;;9.62;100.00;102386.94;2086722;28;44991;-56
2023/12/19 00:43:51;;;;;;;;;31.50;26.50;;;;;9.64;100.00;102381.66;2085719;28;44864;-58
2023/12/19 00:44:51;;;;;;;;;36.00;33.75;;;;;9.64;100.00;102377.22;2084228;28;45112;-58
2023/12/19 00:45:51;;;;;;;;;30.50;27.75;;;;;9.67;100.00;102379.94;2087911;28;45090;-58
2023/12/19 00:46:52;;;;;;;;;34.50;29.50;;;;;9.64;100.00;102377.22;2084984;28;44873;-56
2023/12/19 00:47:52;;;;;;;;;27.00;25.00;;;;;9.61;100.00;102377.22;2088055;28;44807;-58
2023/12/19 00:48:52;;;;;;;;;29.00;29.00;;;;;9.63;100.00;102378.13;2088607;28;44786;-57
2023/12/19 00:49:53;;;;;;;;;31.00;29.50;;;;;9.63;100.00;102383.41;2088602;28;44862;-54
2023/12/19 00:50:53;;;;;;;;;20.00;19.50;;;;;9.65;100.00;102378.13;2088796;28;44950;-56
2023/12/19 00:51:53;;;;;;;;;32.50;30.25;;;;;9.62;100.00;102372.81;2088333;28;44952;-57
2023/12/19 00:52:53;;;;;;;;;31.25;29.00;;;;;9.64;100.00;102384.31;2087745;28;44965;-57
2023/12/19 00:53:54;;;;;;;;;31.00;25.50;;;;;9.64;100.00;102379.00;2087376;28;44981;-57
2023/12/19 00:54:54;;;;;;;;;34.00;32.75;;;;;9.64;100.00;102390.50;2087883;28;44830;-57
2023/12/19 00:55:54;;;;;;;;;30.50;30.25;;;;;9.63;100.00;102377.22;2087769;28;44853;-57
2023/12/19 00:56:55;;;;;;;;;29.25;26.50;;;;;9.63;100.00;102377.22;2086323;28;45234;-55
2023/12/19 00:57:55;;;;;;;;;30.00;23.75;;;;;9.62;100.00;102391.34;2088245;28;44941;-54
2023/12/19 00:58:56;;;;;;;;;28.50;27.50;;;;;9.65;100.00;102394.03;2087078;28;44965;-56
2023/12/19 00:59:56;;;;;;;;;27.25;26.50;;;;;9.60;100.00;102385.16;2087996;28;45264;-57
2023/12/19 01:00:56;;;;;;;;;35.50;29.25;;;;;9.59;100.00;102386.03;2088376;28;44996;-58
2023/12/19 01:01:57;;;;;;;;;31.75;31.00;;;;;9.58;100.00;102387.81;2088102;28;44845;-57
2023/12/19 01:02:57;;;;;;;;;38.75;29.00;;;;;9.56;100.00;102386.91;2078557;28;45413;-59
2023/12/19 01:03:57;;;;;;;;;31.00;27.00;;;;;9.57;100.00;102385.13;2078166;28;44979;-57
2023/12/19 01:04:58;;;;;;;;;33.75;32.00;;;;;9.58;100.00;102392.22;2084211;28;44940;-57
2023/12/19 01:06:03;;;;;;;;;26.75;26.25;;;;;9.60;100.00;102387.81;2087989;28;44904;-58
2023/12/19 01:07:03;;;;;;;;;27.60;26.60;;;;;9.60;100.00;102394.00;2080091;28;44922;-58
2023/12/19 01:08:04;;;;;;;;;26.75;26.50;;;;;9.62;100.00;102394.00;2081847;28;45015;-56
2023/12/19 01:09:05;;;;;;;;;30.75;28.00;;;;;9.67;100.00;102400.25;2087537;28;44924;-55
2023/12/19 01:10:06;;;;;;;;;32.60;29.80;;;;;9.67;100.00;102397.59;2088019;28;44791;-57
2023/12/19 01:11:09;;;;;;;;;32.75;31.75;;;;;9.67;100.00;102401.16;2086131;28;44950;-59
2023/12/19 01:12:09;;;;;;;;;35.40;32.80;;;;;9.68;100.00;102394.97;2085851;28;45010;-58
2023/12/19 01:13:09;;;;;;;;;40.25;32.00;;;;;9.70;100.00;102395.88;2087667;28;44845;-58
2023/12/19 01:14:10;;;;;;;;;33.00;32.00;;;;;9.73;100.00;102397.66;2087079;28;45029;-58
2023/12/19 01:15:10;;;;;;;;;33.25;29.75;;;;;9.75;100.00;102393.25;2078723;28;44859;-56
2023/12/19 01:16:12;;;;;;;;;36.50;30.75;;;;;9.74;100.00;102410.91;2086924;28;44988;-55
2023/12/19 01:17:13;;;;;;;;;32.60;31.40;;;;;9.79;100.00;102407.44;2088009;28;45064;-57
2023/12/19 01:18:13;;;;;;;;;28.75;26.75;;;;;9.79;100.00;102405.66;2087918;28;45287;-55
2023/12/19 01:19:14;;;;;;;;;35.50;28.00;;;;;9.80;100.00;102407.44;2088118;28;45095;-58
2023/12/19 01:20:14;;;;;;;;;28.50;27.25;;;;;9.82;100.00;102415.41;2087810;28;44897;-58
2023/12/19 01:21:14;;;;;;;;;28.25;25.00;;;;;9.83;100.00;102417.19;2060743;28;44940;-56
2023/12/19 01:22:14;;;;;;;;;31.00;29.50;;;;;9.83;100.00;102423.38;2067903;28;45047;-58
2023/12/19 01:23:15;;;;;;;;;36.50;30.25;;;;;9.85;100.00;102424.25;2088000;28;44818;-56
2023/12/19 01:24:16;;;;;;;;;31.75;28.75;;;;;9.86;100.00;102427.81;2095318;28;45298;-58
2023/12/19 01:25:16;;;;;;;;;29.00;28.50;;;;;9.86;100.00;102419.84;2095851;28;45069;-58
2023/12/19 01:26:17;;;;;;;;;30.25;28.00;;;;;9.87;100.00;102422.50;2087948;28;44976;-57
2023/12/19 01:27:17;;;;;;;;;32.50;28.75;;;;;9.87;100.00;102421.63;2087878;28;44838;-57
2023/12/19 01:28:17;;;;;;;;;30.75;29.50;;;;;9.86;100.00;102425.16;2088010;28;44888;-56
2023/12/19 01:29:18;;;;;;;;;32.00;28.75;;;;;9.88;100.00;102426.94;2086794;28;44843;-57
2023/12/19 01:30:19;;;;;;;;;28.20;27.60;;;;;9.88;100.00;102421.63;2095964;28;44825;-57
2023/12/19 01:31:19;;;;;;;;;23.25;19.75;;;;;9.89;100.00;102423.41;2096376;28;44850;-58
2023/12/19 01:32:19;;;;;;;;;38.00;28.25;;;;;9.91;100.00;102420.75;2086951;28;44875;-57
2023/12/19 01:33:20;;;;;;;;;28.25;27.75;;;;;9.92;100.00;102409.31;2088136;28;45019;-57
2023/12/19 01:34:20;;;;;;;;;31.25;29.50;;;;;9.95;100.00;102409.31;2094701;28;44792;-58
2023/12/19 01:35:20;;;;;;;;;30.00;28.25;;;;;9.94;100.00;102411.09;2095918;28;44824;-58
2023/12/19 01:36:21;;;;;;;;;32.00;28.25;;;;;9.95;100.00;102406.66;2088257;28;44858;-56
2023/12/19 01:37:21;;;;;;;;;29.25;28.00;;;;;9.94;100.00;102404.91;2085996;28;45110;-55
2023/12/19 01:38:22;;;;;;;;;30.75;28.00;;;;;9.95;100.00;102398.72;2087820;28;44748;-58
2023/12/19 01:39:22;;;;;;;;;24.75;24.00;;;;;9.95;100.00;102402.25;2087912;28;44830;-56
2023/12/19 01:40:22;;;;;;;;;29.00;26.00;;;;;9.92;100.00;102396.94;2087754;28;44989;-56
2023/12/19 01:41:23;;;;;;;;;29.75;28.75;;;;;9.92;100.00;102401.34;2088152;28;44997;-57
2023/12/19 01:42:24;;;;;;;;;34.00;31.00;;;;;9.92;100.00;102396.06;2087829;28;44927;-57
2023/12/19 01:43:24;;;;;;;;;40.00;33.25;;;;;9.91;100.00;102387.22;2087109;28;44909;-58
2023/12/19 01:44:25;;;;;;;;;40.50;36.00;;;;;9.92;100.00;102385.44;2088161;28;45383;-56
2023/12/19 01:45:27;;;;;;;;;31.80;29.20;;;;;9.95;100.00;102385.47;2087747;28;44771;-57
2023/12/19 01:46:28;;;;;;;;;27.20;23.60;;;;;9.95;100.00;102396.94;2087393;28;45024;-57
2023/12/19 01:47:28;;;;;;;;;38.50;33.00;;;;;9.97;100.00;102383.69;2078439;28;45106;-58
2023/12/19 01:48:29;;;;;;;;;30.50;27.00;;;;;9.96;100.00;102382.81;2079025;28;44961;-58
2023/12/19 01:49:29;;;;;;;;;34.00;29.50;;;;;9.98;100.00;102377.50;2086892;28;44804;-56
2023/12/19 01:50:30;;;;;;;;;26.20;24.60;;;;;9.97;100.00;102370.44;2087037;28;44981;-57
2023/12/19 01:51:30;;;;;;;;;30.00;26.75;;;;;9.95;100.00;102373.09;2086389;28;44979;-58
2023/12/19 01:52:31;;;;;;;;;38.75;35.00;;;;;9.96;100.00;102385.47;2088233;28;44808;-57
2023/12/19 01:53:31;;;;;;;;;27.00;24.25;;;;;9.95;100.00;102365.13;2076983;28;45001;-55
2023/12/19 01:54:32;;;;;;;;;27.75;27.50;;;;;9.96;100.00;102363.38;2079154;28;44859;-57
2023/12/19 01:55:33;;;;;;;;;35.20;27.00;;;;;9.95;100.00;102364.25;2087617;28;44854;-57
2023/12/19 01:56:34;;;;;;;;;34.75;30.75;;;;;9.94;100.00;102373.97;2087642;28;45080;-57
2023/12/19 01:57:36;;;;;;;;;28.80;27.40;;;;;9.93;100.00;102385.44;2088030;28;44928;-56
2023/12/19 01:58:37;;;;;;;;;35.00;30.20;;;;;9.92;100.00;102381.03;2087947;28;44876;-58
2023/12/19 01:59:38;;;;;;;;;57.40;46.60;;;;;9.93;100.00;102382.78;2087734;28;44929;-58
2023/12/19 02:00:38;;;;;;;;;47.75;40.50;;;;;9.93;100.00;102368.66;2088079;28;44849;-56
2023/12/19 02:01:39;;;;;;;;;36.00;33.25;;;;;9.95;100.00;102366.91;2087526;28;45031;-55
2023/12/19 02:02:40;;;;;;;;;29.50;23.75;;;;;9.95;100.00;102370.44;2085470;28;45068;-57
2023/12/19 02:03:42;;;;;;;;;27.40;24.00;;;;;9.94;100.00;102373.06;2086581;28;44951;-58
2023/12/19 02:04:42;;;;;;;;;46.60;37.80;;;;;9.96;100.00;102373.97;2085727;28;44952;-55
2023/12/19 02:05:46;;;;;;;;;34.50;30.75;;;;;9.97;100.00;102378.41;2086334;28;45117;-58
2023/12/19 02:06:47;;;;;;;;;34.40;31.60;;;;;9.96;100.00;102379.28;2088353;28;44901;-56
2023/12/19 02:07:48;;;;;;;;;30.50;26.25;;;;;9.97;100.00;102381.03;2087495;28;45327;-56
2023/12/19 02:08:49;;;;;;;;;32.00;27.80;;;;;9.96;100.00;102376.63;2085832;28;44769;-56
2023/12/19 02:09:51;;;;;;;;;30.25;29.00;;;;;9.96;100.00;102368.66;2086915;28;45234;-56
2023/12/19 02:10:51;;;;;;;;;32.60;30.60;;;;;9.95;100.00;102381.03;2087437;28;44960;-57
2023/12/19 02:11:52;;;;;;;;;31.00;29.75;;;;;9.96;100.00;102373.97;2087750;28;44908;-58
2023/12/19 02:12:52;;;;;;;;;27.25;26.50;;;;;9.97;100.00;102379.28;2087483;28;45625;-57
2023/12/19 02:13:53;;;;;;;;;24.00;24.00;;;;;9.98;100.00;102369.56;2087699;28;44952;-57
2023/12/19 02:14:54;;;;;;;;;29.40;24.60;;;;;9.98;100.00;102380.16;2088105;28;44887;-56
2023/12/19 02:15:54;;;;;;;;;27.75;27.75;;;;;9.97;100.00;102375.75;2088492;28;45091;-58
2023/12/19 02:16:55;;;;;;;;;24.50;24.50;;;;;9.98;100.00;102378.41;2089735;28;44931;-57
2023/12/19 02:17:55;;;;;;;;;28.25;24.25;;;;;9.98;100.00;102380.16;2088715;28;44898;-57
2023/12/19 02:19:03;;;;;;;;;28.00;28.00;;;;;9.99;100.00;102377.53;2088963;28;44827;-55
2023/12/19 02:20:04;;;;;;;;;29.00;24.80;;;;;10.00;100.00;102389.03;2089340;28;44897;-56
2023/12/19 02:21:05;;;;;;;;;29.60;22.80;;;;;10.02;100.00;102387.25;2088642;28;45025;-57
2023/12/19 02:22:05;;;;;;;;;20.75;19.50;;;;;10.01;100.00;102391.69;2089516;28;45103;-58
2023/12/19 02:23:06;;;;;;;;;30.50;28.25;;;;;10.02;100.00;102384.59;2089015;28;44795;-56
2023/12/19 02:24:07;;;;;;;;;24.75;24.50;;;;;10.04;100.00;102388.19;2089699;28;44854;-57
2023/12/19 02:25:08;;;;;;;;;29.60;23.20;;;;;10.06;100.00;102399.69;2086987;28;45068;-57
2023/12/19 02:26:09;;;;;;;;;26.60;23.60;;;;;10.06;100.00;102393.50;2086287;28;45005;-58
2023/12/19 02:27:11;;;;;;;;;28.00;24.75;;;;;10.08;100.00;102392.63;2088975;28;44834;-57
2023/12/19 02:28:12;;;;;;;;;28.20;25.00;;;;;10.08;100.00;102386.44;2089434;28;44919;-57
2023/12/19 02:29:12;;;;;;;;;27.75;27.75;;;;;10.07;100.00;102385.53;2089112;28;44855;-57
2023/12/19 02:30:12;;;;;;;;;26.50;24.00;;;;;10.07;100.00;102380.25;2084296;28;44927;-58
2023/12/19 02:31:13;;;;;;;;;23.00;21.75;;;;;10.08;100.00;102378.47;2083211;28;44970;-57
2023/12/19 02:32:13;;;;;;;;;18.50;15.75;;;;;10.07;100.00;102380.25;2078315;28;45087;-57
2023/12/19 02:33:14;;;;;;;;;27.00;22.00;;;;;10.08;100.00;102381.13;2079698;28;45009;-56
2023/12/19 02:34:15;;;;;;;;;19.00;19.00;;;;;10.09;100.00;102383.78;2088092;28;44807;-55
2023/12/19 02:35:16;;;;;;;;;23.60;22.60;;;;;10.09;100.00;102381.13;2089110;28;44901;-56
2023/12/19 02:36:16;;;;;;;;;25.25;25.25;;;;;10.11;100.00;102389.09;2096756;28;44874;-56
2023/12/19 02:37:17;;;;;;;;;26.75;23.75;;;;;10.11;100.00;102384.69;2096736;28;45243;-57
2023/12/19 02:38:17;;;;;;;;;25.25;23.00;;;;;10.14;100.00;102381.16;2089305;28;44956;-57
2023/12/19 02:39:18;;;;;;;;;21.50;21.00;;;;;10.13;100.00;102374.97;2088343;28;44957;-56
2023/12/19 02:40:18;;;;;;;;;34.50;27.75;;;;;10.13;100.00;102379.38;2088545;28;44899;-57
2023/12/19 02:41:18;;;;;;;;;30.25;29.25;;;;;10.13;100.00;102377.63;2089069;28;44914;-56
2023/12/19 02:42:19;;;;;;;;;25.50;24.50;;;;;10.14;100.00;102376.72;2087302;28;44770;-56
2023/12/19 02:43:19;;;;;;;;;25.75;20.75;;;;;10.14;100.00;102375.84;2088808;28;44977;-57
2023/12/19 02:44:19;;;;;;;;;24.25;24.25;;;;;10.13;100.00;102374.97;2088565;28;45043;-57
2023/12/19 02:45:20;;;;;;;;;26.75;22.00;;;;;10.15;100.00;102364.34;2088409;28;44907;-57
2023/12/19 02:46:20;;;;;;;;;22.75;21.00;;;;;10.15;100.00;102364.34;2088867;28;44834;-58
2023/12/19 02:47:20;;;;;;;;;25.75;22.75;;;;;10.17;100.00;102367.94;2089364;28;45011;-59
2023/12/19 02:48:21;;;;;;;;;25.25;23.50;;;;;10.17;100.00;102366.16;2089113;28;44913;-57
2023/12/19 02:49:21;;;;;;;;;26.75;24.25;;;;;10.17;100.00;102360.88;2086910;28;45303;-56
2023/12/19 02:50:21;;;;;;;;;22.75;21.00;;;;;10.18;100.00;102359.97;2089004;28;45241;-58
2023/12/19 02:51:22;;;;;;;;;23.25;21.75;;;;;10.19;100.00;102360.88;2088498;28;44817;-57
2023/12/19 02:52:22;;;;;;;;;23.00;23.00;;;;;10.20;100.00;102352.03;2089127;28;45204;-55
2023/12/19 02:53:22;;;;;;;;;27.75;23.75;;;;;10.20;100.00;102355.56;2089090;28;45175;-59
2023/12/19 02:54:23;;;;;;;;;23.00;21.00;;;;;10.20;100.00;102352.91;2086892;28;44838;-58
2023/12/19 02:55:23;;;;;;;;;21.00;21.00;;;;;10.21;100.00;102359.09;2088924;28;44981;-57
2023/12/19 02:56:24;;;;;;;;;23.75;23.50;;;;;10.21;100.00;102348.50;2086204;28;44989;-56
2023/12/19 02:57:25;;;;;;;;;25.80;22.80;;;;;10.21;100.00;102345.84;2089151;28;44989;-57
2023/12/19 02:58:25;;;;;;;;;25.50;23.75;;;;;10.19;100.00;102347.59;2088724;28;44932;-57
2023/12/19 02:59:25;;;;;;;;;26.25;23.25;;;;;10.20;100.00;102344.94;2087701;28;44852;-57
2023/12/19 03:00:26;;;;;;;;;25.75;25.00;;;;;10.20;100.00;102337.00;2088795;28;44885;-57
2023/12/19 03:01:26;;;;;;;;;33.00;28.50;;;;;10.22;100.00;102337.91;2088569;28;44795;-57
2023/12/19 03:02:26;;;;;;;;;25.00;24.00;;;;;10.23;100.00;102344.13;2088914;28;44806;-58
2023/12/19 03:03:27;;;;;;;;;26.00;22.50;;;;;10.22;100.00;102332.63;2088661;28;44961;-55
2023/12/19 03:04:27;;;;;;;;;28.50;26.25;;;;;10.23;100.00;102338.81;2089340;28;44931;-55
2023/12/19 03:05:28;;;;;;;;;26.25;24.25;;;;;10.24;100.00;102335.28;2092089;28;44819;-57
2023/12/19 03:06:28;;;;;;;;;26.25;24.50;;;;;10.22;100.00;102335.25;2093101;28;45223;-56
2023/12/19 03:07:28;;;;;;;;;27.25;23.00;;;;;10.23;100.00;102337.03;2087485;28;44759;-57
2023/12/19 03:08:29;;;;;;;;;26.00;25.50;;;;;10.22;100.00;102337.91;2088494;28;44759;-58
2023/12/19 03:09:29;;;;;;;;;30.75;30.75;;;;;10.22;100.00;102339.69;2089333;28;44860;-56
2023/12/19 03:10:29;;;;;;;;;25.75;23.00;;;;;10.24;100.00;102337.94;2089184;28;45071;-58
2023/12/19 03:11:30;;;;;;;;;31.50;29.25;;;;;10.24;100.00;102338.81;2088558;28;44957;-58
2023/12/19 03:12:30;;;;;;;;;31.75;30.00;;;;;10.25;100.00;102335.28;2088905;28;45204;-56
2023/12/19 03:13:30;;;;;;;;;29.25;28.25;;;;;10.27;100.00;102333.50;2088948;28;44866;-55
2023/12/19 03:14:34;;;;;;;;;20.00;20.00;;;;;10.26;100.00;102337.06;2088705;28;45019;-57
2023/12/19 03:15:36;;;;;;;;;29.80;26.60;;;;;10.27;100.00;102332.63;2087082;28;45196;-55
2023/12/19 03:16:36;;;;;;;;;25.40;23.20;;;;;10.28;100.00;102343.25;2086633;28;44859;-57
2023/12/19 03:17:36;;;;;;;;;27.75;26.00;;;;;10.29;100.00;102339.75;2085906;28;45034;-58
2023/12/19 03:18:37;;;;;;;;;28.00;26.75;;;;;10.31;100.00;102340.63;2088962;28;44926;-57
2023/12/19 03:19:38;;;;;;;;;25.00;21.75;;;;;10.31;100.00;102348.59;2088848;28;44999;-55
2023/12/19 03:20:38;;;;;;;;;27.80;24.20;;;;;10.32;100.00;102342.41;2088676;28;44834;-56
2023/12/19 03:21:39;;;;;;;;;28.75;26.25;;;;;10.31;100.00;102345.06;2084015;28;44847;-56
2023/12/19 03:22:39;;;;;;;;;27.00;27.00;;;;;10.24;100.00;102338.81;2086427;28;44784;-56
2023/12/19 03:23:39;;;;;;;;;23.50;23.25;;;;;10.32;100.00;102325.59;2087740;28;44933;-57
2023/12/19 03:24:39;;;;;;;;;23.75;19.75;;;;;10.33;100.00;102324.72;2088572;28;44831;-57
2023/12/19 03:25:40;;;;;;;;;25.25;22.25;;;;;10.34;100.00;102315.88;2086966;28;44919;-55
2023/12/19 03:26:40;;;;;;;;;24.75;22.75;;;;;10.34;100.00;102301.72;2088174;28;44975;-54
2023/12/19 03:27:41;;;;;;;;;25.75;23.75;;;;;10.32;100.00;102299.94;2088758;28;44968;-57
2023/12/19 03:28:41;;;;;;;;;28.50;24.00;;;;;10.33;100.00;102303.50;2088413;28;44765;-56
2023/12/19 03:29:42;;;;;;;;;28.00;24.75;;;;;10.34;100.00;102297.28;2088647;28;44927;-57
2023/12/19 03:30:42;;;;;;;;;24.60;23.40;;;;;10.33;100.00;102303.50;2088690;28;45073;-57
2023/12/19 03:31:43;;;;;;;;;23.25;21.25;;;;;10.34;100.00;102302.59;2088814;28;45086;-57
2023/12/19 03:32:43;;;;;;;;;19.25;19.25;;;;;10.33;100.00;102314.09;2088889;28;45109;-56
2023/12/19 03:33:43;;;;;;;;;22.25;19.75;;;;;10.31;100.00;102308.78;2087380;28;45376;-56
2023/12/19 03:34:44;;;;;;;;;24.00;20.25;;;;;10.31;100.00;102311.44;2088695;28;44822;-57
2023/12/19 03:35:44;;;;;;;;;19.50;19.00;;;;;10.32;100.00;102312.34;2088820;28;45004;-56
2023/12/19 03:36:44;;;;;;;;;30.50;25.75;;;;;10.32;100.00;102307.91;2088680;28;44961;-56
2023/12/19 03:37:45;;;;;;;;;28.25;24.50;;;;;10.31;100.00;102314.09;2088910;28;45487;-57
2023/12/19 03:38:45;;;;;;;;;24.75;22.25;;;;;10.32;100.00;102307.03;2089392;28;45110;-57
2023/12/19 03:39:45;;;;;;;;;27.50;23.75;;;;;10.31;100.00;102297.28;2088542;28;44996;-56
2023/12/19 03:40:46;;;;;;;;;23.75;22.00;;;;;10.32;100.00;102304.38;2087743;28;45016;-57
2023/12/19 03:41:46;;;;;;;;;29.00;23.25;;;;;10.33;100.00;102308.78;2087975;28;44815;-57
2023/12/19 03:42:46;;;;;;;;;22.75;19.50;;;;;10.32;100.00;102302.59;2087549;28;44870;-57
2023/12/19 03:43:47;;;;;;;;;19.75;19.50;;;;;10.32;100.00;102307.91;2088323;28;44886;-57
2023/12/19 03:44:47;;;;;;;;;22.00;19.25;;;;;10.30;100.00;102306.13;2088975;28;44931;-55
2023/12/19 03:45:48;;;;;;;;;21.75;21.75;;;;;10.29;100.00;102310.56;2088472;28;44893;-57
2023/12/19 03:46:49;;;;;;;;;27.40;23.20;;;;;10.28;100.00;102299.91;2087042;28;44873;-55
2023/12/19 03:47:49;;;;;;;;;23.75;23.00;;;;;10.28;100.00;102299.91;2089024;28;45051;-58
2023/12/19 03:48:49;;;;;;;;;20.50;20.50;;;;;10.28;100.00;102302.56;2088396;28;44818;-57
2023/12/19 03:49:50;;;;;;;;;23.50;22.75;;;;;10.27;100.00;102311.41;2087222;28;44961;-56
2023/12/19 03:50:50;;;;;;;;;28.50;24.75;;;;;10.29;100.00;102317.59;2088813;28;44887;-56
2023/12/19 03:51:51;;;;;;;;;21.50;21.50;;;;;10.29;100.00;102318.50;2088357;28;44849;-58
2023/12/19 03:52:51;;;;;;;;;24.75;21.50;;;;;10.30;100.00;102314.09;2088388;28;44925;-57
2023/12/19 03:53:51;;;;;;;;;23.75;23.50;;;;;10.29;100.00;102315.88;2088436;28;44903;-58
2023/12/19 03:54:52;;;;;;;;;31.50;23.50;;;;;10.28;100.00;102307.88;2086544;28;44902;-56
2023/12/19 03:55:54;;;;;;;;;20.75;19.50;;;;;10.27;100.00;102309.63;2088020;28;45040;-57
2023/12/19 03:56:54;;;;;;;;;22.80;19.60;;;;;10.27;100.00;102304.31;2088280;28;44988;-57
2023/12/19 03:57:55;;;;;;;;;21.00;19.75;;;;;10.28;100.00;102295.47;2088366;28;44928;-56
2023/12/19 03:58:55;;;;;;;;;25.25;23.00;;;;;10.29;100.00;102297.28;2088420;28;45014;-55
2023/12/19 03:59:55;;;;;;;;;25.75;23.75;;;;;10.31;100.00;102297.28;2088628;28;44801;-57
2023/12/19 04:00:56;;;;;;;;;22.00;19.00;;;;;10.31;100.00;102295.53;2087724;28;44984;-57
2023/12/19 04:01:58;;;;;;;;;24.25;23.25;;;;;10.31;100.00;102295.53;2088074;28;44926;-55
2023/12/19 04:02:59;;;;;;;;;24.00;23.00;;;;;10.33;100.00;102295.53;2088012;28;44873;-55
2023/12/19 04:03:59;;;;;;;;;24.00;23.25;;;;;10.34;100.00;102296.41;2088682;28;45057;-58
2023/12/19 04:04:59;;;;;;;;;28.25;23.50;;;;;10.35;100.00;102295.53;2086456;28;45107;-56
2023/12/19 04:06:00;;;;;;;;;19.25;19.25;;;;;10.35;100.00;102287.56;2087927;28;45048;-56
2023/12/19 04:07:00;;;;;;;;;22.50;20.75;;;;;10.34;100.00;102289.34;2088880;28;45078;-56
2023/12/19 04:08:00;;;;;;;;;21.00;19.75;;;;;10.36;100.00;102292.00;2088303;28;45422;-57
2023/12/19 04:09:01;;;;;;;;;19.75;17.75;;;;;10.38;100.00;102292.88;2088519;28;44878;-57
2023/12/19 04:10:01;;;;;;;;;24.75;24.25;;;;;10.36;100.00;102279.59;2088527;28;44863;-57
2023/12/19 04:11:01;;;;;;;;;20.25;19.25;;;;;10.36;100.00;102276.06;2088317;28;44901;-57
2023/12/19 04:12:02;;;;;;;;;21.25;17.00;;;;;10.38;100.00;102279.63;2088128;28;44846;-59
2023/12/19 04:13:03;;;;;;;;;23.20;22.20;;;;;10.38;100.00;102272.53;2088741;28;44997;-56
2023/12/19 04:14:05;;;;;;;;;22.50;22.00;;;;;10.40;100.00;102264.56;2088228;28;45179;-56
2023/12/19 04:15:08;;;;;;;;;24.00;22.40;;;;;10.39;100.00;102258.38;2087817;28;44842;-58
2023/12/19 04:16:08;;;;;;;;;26.40;23.60;;;;;10.40;100.00;102256.63;2087179;28;44799;-55
2023/12/19 04:17:10;;;;;;;;;23.50;22.75;;;;;10.40;100.00;102252.19;2086975;28;45009;-57
2023/12/19 04:18:14;;;;;;;;;19.60;17.40;;;;;10.40;100.00;102252.19;2087130;28;44965;-58
2023/12/19 04:19:14;;;;;;;;;26.00;23.20;;;;;10.41;100.00;102250.44;2087861;28;44897;-55
2023/12/19 04:20:15;;;;;;;;;24.75;21.75;;;;;10.41;100.00;102231.84;2087302;28;45464;-55
2023/12/19 04:21:15;;;;;;;;;24.00;23.50;;;;;10.40;100.00;102238.03;2087910;28;45011;-56
2023/12/19 04:22:15;;;;;;;;;23.50;23.50;;;;;10.41;100.00;102234.50;2088240;28;44985;-55
2023/12/19 04:23:16;;;;;;;;;20.00;20.00;;;;;10.39;100.00;102228.31;2088342;28;44802;-56
2023/12/19 04:24:17;;;;;;;;;19.75;16.50;;;;;10.40;100.00;102230.97;2085498;28;44949;-56
2023/12/19 04:25:18;;;;;;;;;23.00;21.80;;;;;10.40;100.00;102216.81;2094615;28;45045;-55
2023/12/19 04:26:19;;;;;;;;;20.00;19.50;;;;;10.41;100.00;102219.47;2095981;28;44965;-55
2023/12/19 04:27:19;;;;;;;;;23.00;21.00;;;;;10.39;100.00;102209.72;2088486;28;44961;-54
2023/12/19 04:28:20;;;;;;;;;21.00;18.75;;;;;10.40;100.00;102204.41;2088951;28;44808;-57
2023/12/19 04:29:20;;;;;;;;;22.00;22.00;;;;;10.40;100.00;102203.53;2086958;28;45357;-57
2023/12/19 04:30:20;;;;;;;;;26.75;23.00;;;;;10.40;100.00;102200.88;2087204;28;45161;-57
2023/12/19 04:31:21;;;;;;;;;21.00;20.25;;;;;10.40;100.00;102203.53;2087743;28;44928;-57
2023/12/19 04:32:21;;;;;;;;;23.00;22.00;;;;;10.40;100.00;102203.53;2088023;28;45110;-55
2023/12/19 04:33:22;;;;;;;;;21.00;17.25;;;;;10.38;100.00;102213.25;2088711;28;45016;-57